| time (UTC) | temp C | wind direction | speed KPH | gust KPH | rain 1hr cm | rain 24hr cm | rain mn cm | humidity % | barometer mb |
| 20260906234547 | 25 | 148 | 12.9 | 27.4 | 0.00 | 0.00 | 0.00 | 23 | 1013.2 |
| 20260906233045 | 26 | 217 | 11.3 | 25.7 | 0.00 | 0.00 | 0.00 | 22 | 1013.2 |
| 20260906231546 | 26 | 195 | 16.1 | 38.6 | 0.00 | 0.00 | 0.00 | 22 | 1013.4 |
| 20260906230051 | 26 | 194 | 11.3 | 30.6 | 0.00 | 0.00 | 0.00 | 21 | 1013.5 |
| 20260906224552 | 26 | 211 | 17.7 | 37.0 | 0.00 | 0.00 | 0.00 | 20 | 1013.3 |
| 20260906223045 | 27 | 223 | 12.9 | 35.4 | 0.00 | 0.00 | 0.00 | 23 | 1013.6 |
| 20260906221553 | 27 | 144 | 14.5 | 27.4 | 0.00 | 0.00 | 0.00 | 22 | 1013.7 |
| 20260906220046 | 27 | 193 | 14.5 | 30.6 | 0.00 | 0.00 | 0.00 | 20 | 1013.8 |
| 20260906214544 | 27 | 244 | 16.1 | 35.4 | 0.00 | 0.00 | 0.00 | 20 | 1013.7 |
| 20260906213043 | 27 | 209 | 9.7 | 30.6 | 0.00 | 0.00 | 0.00 | 20 | 1014.2 |
| 20260906211550 | 27 | 131 | 11.3 | 25.7 | 0.00 | 0.00 | 0.00 | 21 | 1013.9 |
| 20260906210045 | 26 | 227 | 16.1 | 40.2 | 0.00 | 0.00 | 0.00 | 18 | 1014.2 |
| 20260906204601 | 27 | 213 | 9.7 | 29.0 | 0.00 | 0.00 | 0.00 | 19 | 1014.5 |
| 20260906203041 | 27 | 211 | 12.9 | 33.8 | 0.00 | 0.00 | 0.00 | 18 | 1014.5 |
| 20260906201603 | 28 | 258 | 14.5 | 29.0 | 0.00 | 0.00 | 0.00 | 18 | 1014.5 |
| 20260906200043 | 27 | 198 | 12.9 | 30.6 | 0.00 | 0.00 | 0.00 | 19 | 1014.5 |
| 20260906194542 | 27 | 140 | 16.1 | 38.6 | 0.00 | 0.00 | 0.00 | 20 | 1014.6 |
| 20260906193050 | 27 | 194 | 9.7 | 35.4 | 0.00 | 0.00 | 0.00 | 19 | 1014.6 |
| 20260906191549 | 27 | 210 | 8.0 | 32.2 | 0.00 | 0.00 | 0.00 | 18 | 1014.8 |
| 20260906190043 | 27 | 212 | 11.3 | 30.6 | 0.00 | 0.00 | 0.00 | 19 | 1015.1 |
| 20260906184542 | 26 | 232 | 9.7 | 32.2 | 0.00 | 0.00 | 0.00 | 21 | 1015.5 |
| 20260906183046 | 26 | 186 | 12.9 | 33.8 | 0.00 | 0.00 | 0.00 | 21 | 1015.9 |
| 20260906181547 | 26 | 194 | 11.3 | 25.7 | 0.00 | 0.00 | 0.00 | 23 | 1016.1 |
| 20260906180058 | 26 | 155 | 9.7 | 25.7 | 0.00 | 0.00 | 0.00 | 24 | 1016.0 |
| 20260906174541 | 25 | 211 | 9.7 | 25.7 | 0.00 | 0.00 | 0.00 | 22 | 1016.4 |
| 20260906173044 | 25 | 244 | 12.9 | 29.0 | 0.00 | 0.00 | 0.00 | 23 | 1016.7 |
| 20260906171543 | 25 | 197 | 8.0 | 17.7 | 0.00 | 0.00 | 0.00 | 24 | 1016.8 |
| 20260906170042 | 24 | 230 | 12.9 | 27.4 | 0.00 | 0.00 | 0.00 | 24 | 1017.0 |
| 20260906164549 | 24 | 233 | 9.7 | 22.5 | 0.00 | 0.00 | 0.00 | 24 | 1017.0 |
| 20260906163044 | 23 | 182 | 9.7 | 17.7 | 0.00 | 0.00 | 0.00 | 26 | 1017.1 |
| 20260906161547 | 20 | 30 | 0.0 | 8.0 | 0.00 | 0.00 | 0.00 | 33 | 1017.1 |
| 20260906160050 | 18 | 24 | 4.8 | 8.0 | 0.00 | 0.00 | 0.00 | 39 | 1017.2 |
| 20260906154554 | 17 | 19 | 4.8 | 12.9 | 0.00 | 0.00 | 0.00 | 39 | 1017.3 |
| 20260906153051 | 16 | 91 | 6.4 | 12.9 | 0.00 | 0.00 | 0.00 | 43 | 1017.5 |
| 20260906151542 | 15 | 63 | 6.4 | 9.7 | 0.00 | 0.00 | 0.00 | 45 | 1017.5 |
| 20260906150055 | 13 | 49 | 0.0 | 6.4 | 0.00 | 0.00 | 0.00 | 52 | 1017.7 |
| 20260906144543 | 11 | 47 | 3.2 | 8.0 | 0.00 | 0.00 | 0.00 | 52 | 1017.6 |
| 20260906143046 | 10 | 58 | 1.6 | 6.4 | 0.00 | 0.00 | 0.00 | 56 | 1017.5 |
| 20260906141546 | 9 | 0 | 0.0 | 4.8 | 0.00 | 0.00 | 0.00 | 59 | 1017.5 |
| 20260906140044 | 8 | 0 | 0.0 | 4.8 | 0.00 | 0.00 | 0.00 | 60 | 1017.3 |
| 20260906134541 | 7 | 77 | 3.2 | 6.4 | 0.00 | 0.00 | 0.00 | 62 | 1017.1 |
| 20260906133042 | 8 | 77 | 0.0 | 9.7 | 0.00 | 0.00 | 0.00 | 58 | 1017.0 |
| 20260906131547 | 8 | 40 | 4.8 | 8.0 | 0.00 | 0.00 | 0.00 | 58 | 1016.8 |
| 20260906130050 | 7 | 80 | 3.2 | 6.4 | 0.00 | 0.00 | 0.00 | 59 | 1016.7 |
| 20260906124542 | 8 | 0 | 0.0 | 3.2 | 0.00 | 0.00 | 0.00 | 57 | 1016.6 |
| 20260906123044 | 8 | 91 | 3.2 | 8.0 | 0.00 | 0.00 | 0.00 | 56 | 1016.5 |
| 20260906121545 | 8 | 78 | 3.2 | 11.3 | 0.00 | 0.00 | 0.00 | 55 | 1016.5 |
| 20260906120043 | 9 | 66 | 4.8 | 9.7 | 0.00 | 0.00 | 0.00 | 54 | 1016.5 |
| 20260906114556 | 9 | 0 | 3.2 | 8.0 | 0.00 | 0.00 | 0.00 | 53 | 1016.5 |
| 20260906113050 | 10 | 89 | 4.8 | 12.9 | 0.00 | 0.00 | 0.00 | 51 | 1016.4 |
| 20260906111549 | 10 | 51 | 6.4 | 14.5 | 0.00 | 0.00 | 0.00 | 50 | 1016.5 |
| 20260906110041 | 11 | 85 | 6.4 | 14.5 | 0.00 | 0.00 | 0.00 | 49 | 1016.4 |
| 20260906104547 | 10 | 68 | 9.7 | 17.7 | 0.00 | 0.00 | 0.00 | 49 | 1016.0 |
| 20260906103049 | 11 | 68 | 6.4 | 16.1 | 0.00 | 0.00 | 0.00 | 49 | 1016.1 |
| 20260906101543 | 11 | 83 | 11.3 | 20.9 | 0.00 | 0.00 | 0.00 | 48 | 1015.9 |
| 20260906100055 | 11 | 69 | 9.7 | 16.1 | 0.00 | 0.00 | 0.00 | 49 | 1015.9 |
| 20260906094551 | 11 | 66 | 11.3 | 19.3 | 0.00 | 0.00 | 0.00 | 48 | 1015.7 |
| 20260906093043 | 11 | 85 | 11.3 | 16.1 | 0.00 | 0.00 | 0.00 | 49 | 1015.5 |
| 20260906091543 | 11 | 78 | 11.3 | 16.1 | 0.00 | 0.00 | 0.00 | 49 | 1015.6 |
| 20260906090044 | 11 | 106 | 3.2 | 9.7 | 0.00 | 0.00 | 0.00 | 48 | 1015.7 |
| 20260906084547 | 11 | 57 | 11.3 | 16.1 | 0.00 | 0.00 | 0.00 | 49 | 1015.6 |
| 20260906083043 | 11 | 65 | 6.4 | 12.9 | 0.00 | 0.00 | 0.00 | 49 | 1015.8 |
| 20260906081543 | 11 | 103 | 8.0 | 14.5 | 0.00 | 0.00 | 0.00 | 47 | 1015.6 |
| 20260906080052 | 11 | 82 | 11.3 | 12.9 | 0.00 | 0.00 | 0.00 | 50 | 1015.6 |
| 20260906074551 | 12 | 86 | 8.0 | 12.9 | 0.00 | 0.00 | 0.00 | 49 | 1015.6 |
| 20260906073044 | 12 | 126 | 9.7 | 12.9 | 0.00 | 0.00 | 0.00 | 45 | 1015.7 |
| 20260906071543 | 12 | 96 | 9.7 | 16.1 | 0.00 | 0.00 | 0.00 | 44 | 1015.6 |
| 20260906070047 | 12 | 89 | 8.0 | 17.7 | 0.00 | 0.00 | 0.00 | 47 | 1015.4 |
| 20260906064543 | 12 | 98 | 9.7 | 14.5 | 0.00 | 0.00 | 0.00 | 45 | 1015.2 |
| 20260906063046 | 12 | 111 | 11.3 | 14.5 | 0.00 | 0.00 | 0.00 | 45 | 1015.2 |
| 20260906061542 | 13 | 113 | 6.4 | 14.5 | 0.00 | 0.00 | 0.00 | 44 | 1015.2 |
| 20260906060047 | 13 | 109 | 8.0 | 14.5 | 0.00 | 0.00 | 0.00 | 43 | 1015.2 |
| 20260906054601 | 14 | 112 | 8.0 | 16.1 | 0.00 | 0.00 | 0.00 | 40 | 1015.4 |
| 20260906053041 | 13 | 92 | 6.4 | 11.3 | 0.00 | 0.00 | 0.00 | 41 | 1015.5 |
| 20260906051544 | 14 | 96 | 9.7 | 14.5 | 0.00 | 0.00 | 0.00 | 41 | 1015.6 |
| 20260906050045 | 15 | 89 | 6.4 | 14.5 | 0.00 | 0.00 | 0.00 | 40 | 1015.7 |
| 20260906044541 | 15 | 89 | 4.8 | 12.9 | 0.00 | 0.00 | 0.00 | 37 | 1015.8 |
| 20260906043045 | 16 | 82 | 9.7 | 14.5 | 0.00 | 0.00 | 0.00 | 35 | 1015.9 |
| 20260906041542 | 16 | 0 | 0.0 | 6.4 | 0.00 | 0.00 | 0.00 | 34 | 1016.0 |
| 20260906040048 | 17 | 99 | 4.8 | 9.7 | 0.00 | 0.00 | 0.00 | 33 | 1015.9 |
| 20260906034552 | 17 | 76 | 6.4 | 11.3 | 0.00 | 0.00 | 0.00 | 33 | 1016.0 |
| 20260906033045 | 18 | 108 | 16.1 | 25.7 | 0.00 | 0.00 | 0.00 | 32 | 1015.9 |
| 20260906031605 | 19 | 94 | 6.4 | 12.9 | 0.00 | 0.00 | 0.00 | 32 | 1016.0 |
| 20260906030042 | 20 | 146 | 8.0 | 14.5 | 0.00 | 0.00 | 0.00 | 27 | 1015.9 |
| 20260906024557 | 20 | 152 | 11.3 | 17.7 | 0.00 | 0.00 | 0.00 | 26 | 1015.9 |
| 20260906023046 | 21 | 144 | 6.4 | 12.9 | 0.00 | 0.00 | 0.00 | 25 | 1015.6 |
| 20260906021542 | 21 | 161 | 3.2 | 8.0 | 0.00 | 0.00 | 0.00 | 24 | 1015.4 |
| 20260906020047 | 22 | 180 | 3.2 | 9.7 | 0.00 | 0.00 | 0.00 | 23 | 1015.5 |
| 20260906014543 | 23 | 181 | 4.8 | 11.3 | 0.00 | 0.00 | 0.00 | 22 | 1015.6 |
| 20260906013041 | 25 | 202 | 4.8 | 9.7 | 0.00 | 0.00 | 0.00 | 21 | 1015.8 |
| 20260906011542 | 26 | 171 | 8.0 | 17.7 | 0.00 | 0.00 | 0.00 | 19 | 1015.7 |
| 20260906010052 | 26 | 220 | 3.2 | 17.7 | 0.00 | 0.00 | 0.00 | 20 | 1015.7 |
| 20260906004544 | 26 | 197 | 6.4 | 17.7 | 0.00 | 0.00 | 0.00 | 18 | 1015.6 |
| 20260906003045 | 27 | 132 | 12.9 | 22.5 | 0.00 | 0.00 | 0.00 | 17 | 1015.6 |
| 20260906001544 | 27 | 236 | 4.8 | 25.7 | 0.00 | 0.00 | 0.00 | 18 | 1015.6 |
| 20260906000055 | 27 | 228 | 4.8 | 22.5 | 0.00 | 0.00 | 0.00 | 18 | 1015.6 |